sensor_id;sensor_type;location;lat;lon;timestamp;pressure;altitude;pressure_sealevel;temperature;humidity
44992;BME280;56865;51.618;7.406;2023-05-20T00:02:08;101585.06;;;30.73;49.68
44992;BME280;56865;51.618;7.406;2023-05-20T00:04:38;101590.59;;;30.67;49.31
44992;BME280;56865;51.618;7.406;2023-05-20T00:07:09;101593.19;;;30.68;48.67
44992;BME280;56865;51.618;7.406;2023-05-20T00:09:39;101590.47;;;30.49;46.80
44992;BME280;56865;51.618;7.406;2023-05-20T00:12:34;101592.56;;;30.61;47.66
44992;BME280;56865;51.618;7.406;2023-05-20T00:15:31;101590.84;;;30.18;46.54
44992;BME280;56865;51.618;7.406;2023-05-20T00:18:10;101588.56;;;30.73;47.95
44992;BME280;56865;51.618;7.406;2023-05-20T00:20:40;101590.16;;;30.57;45.69
44992;BME280;56865;51.618;7.406;2023-05-20T00:23:10;101585.06;;;30.73;46.93
44992;BME280;56865;51.618;7.406;2023-05-20T00:25:40;101589.72;;;30.87;48.04
44992;BME280;56865;51.618;7.406;2023-05-20T00:28:10;101584.81;;;30.79;47.63
44992;BME280;56865;51.618;7.406;2023-05-20T00:30:40;101584.69;;;30.82;49.93
44992;BME280;56865;51.618;7.406;2023-05-20T00:33:13;101590.34;;;30.73;47.72
44992;BME280;56865;51.618;7.406;2023-05-20T00:35:43;101584.41;;;30.68;47.43
44992;BME280;56865;51.618;7.406;2023-05-20T00:38:13;101590.16;;;30.77;49.01
44992;BME280;56865;51.618;7.406;2023-05-20T00:40:43;101587.84;;;30.70;48.06
44992;BME280;56865;51.618;7.406;2023-05-20T00:46:40;101579.38;;;30.63;47.31
44992;BME280;56865;51.618;7.406;2023-05-20T00:49:25;101584.22;;;30.72;48.83
44992;BME280;56865;51.618;7.406;2023-05-20T00:51:55;101587.50;;;30.77;48.75
44992;BME280;56865;51.618;7.406;2023-05-20T00:54:27;101592.38;;;30.66;48.95
44992;BME280;56865;51.618;7.406;2023-05-20T00:56:57;101598.09;;;30.55;48.92
44992;BME280;56865;51.618;7.406;2023-05-20T00:59:29;101588.00;;;30.44;49.11
44992;BME280;56865;51.618;7.406;2023-05-20T01:01:59;101590.75;;;30.41;49.48
44992;BME280;56865;51.618;7.406;2023-05-20T01:04:32;101585.56;;;30.40;50.03
44992;BME280;56865;51.618;7.406;2023-05-20T01:07:04;101588.91;;;30.43;49.87
44992;BME280;56865;51.618;7.406;2023-05-20T01:09:35;101586.34;;;30.42;49.45
44992;BME280;56865;51.618;7.406;2023-05-20T01:12:09;101585.63;;;30.38;49.58
44992;BME280;56865;51.618;7.406;2023-05-20T01:14:45;101587.44;;;30.36;47.98
44992;BME280;56865;51.618;7.406;2023-05-20T01:17:19;101589.06;;;30.40;49.31
44992;BME280;56865;51.618;7.406;2023-05-20T01:19:57;101579.94;;;30.27;48.53
44992;BME280;56865;51.618;7.406;2023-05-20T01:22:30;101580.69;;;30.30;49.78
44992;BME280;56865;51.618;7.406;2023-05-20T01:25:00;101575.75;;;30.23;50.17
44992;BME280;56865;51.618;7.406;2023-05-20T01:27:31;101577.97;;;29.88;48.89
44992;BME280;56865;51.618;7.406;2023-05-20T01:35:38;101572.31;;;29.75;50.64
44992;BME280;56865;51.618;7.406;2023-05-20T01:38:12;101565.47;;;29.71;50.27
44992;BME280;56865;51.618;7.406;2023-05-20T01:40:45;101572.63;;;29.67;49.33
44992;BME280;56865;51.618;7.406;2023-05-20T01:43:16;101572.09;;;29.59;50.33
44992;BME280;56865;51.618;7.406;2023-05-20T01:45:46;101570.03;;;29.43;50.16
44992;BME280;56865;51.618;7.406;2023-05-20T01:48:16;101559.47;;;29.45;49.92
44992;BME280;56865;51.618;7.406;2023-05-20T01:50:46;101561.50;;;29.60;51.10
44992;BME280;56865;51.618;7.406;2023-05-20T01:53:18;101573.22;;;29.51;50.68
44992;BME280;56865;51.618;7.406;2023-05-20T01:55:48;101563.78;;;29.46;49.82
44992;BME280;56865;51.618;7.406;2023-05-20T01:58:18;101565.88;;;29.38;50.65
44992;BME280;56865;51.618;7.406;2023-05-20T02:00:48;101558.97;;;29.35;50.63
44992;BME280;56865;51.618;7.406;2023-05-20T02:03:18;101560.06;;;29.28;50.50
44992;BME280;56865;51.618;7.406;2023-05-20T02:05:48;101555.72;;;29.27;49.72
44992;BME280;56865;51.618;7.406;2023-05-20T02:08:21;101560.00;;;29.31;49.50
44992;BME280;56865;51.618;7.406;2023-05-20T02:10:51;101556.44;;;29.32;51.02
44992;BME280;56865;51.618;7.406;2023-05-20T02:13:21;101561.47;;;29.38;51.71
44992;BME280;56865;51.618;7.406;2023-05-20T02:15:51;101567.28;;;29.46;49.62
44992;BME280;56865;51.618;7.406;2023-05-20T02:18:21;101566.38;;;29.47;48.60
44992;BME280;56865;51.618;7.406;2023-05-20T02:20:52;101563.53;;;29.54;49.49
44992;BME280;56865;51.618;7.406;2023-05-20T02:23:25;101563.03;;;29.66;51.36
44992;BME280;56865;51.618;7.406;2023-05-20T02:25:55;101561.13;;;29.47;50.48
44992;BME280;56865;51.618;7.406;2023-05-20T02:28:24;101569.47;;;29.59;49.06
44992;BME280;56865;51.618;7.406;2023-05-20T02:30:54;101575.22;;;29.69;50.29
44992;BME280;56865;51.618;7.406;2023-05-20T02:33:24;101568.09;;;29.48;50.97
44992;BME280;56865;51.618;7.406;2023-05-20T02:35:55;101579.41;;;29.25;49.83
44992;BME280;56865;51.618;7.406;2023-05-20T02:38:28;101571.63;;;29.47;49.93
44992;BME280;56865;51.618;7.406;2023-05-20T02:40:58;101567.94;;;29.28;48.57
44992;BME280;56865;51.618;7.406;2023-05-20T02:43:30;101566.63;;;29.63;49.81
44992;BME280;56865;51.618;7.406;2023-05-20T02:46:00;101558.50;;;29.70;50.76
44992;BME280;56865;51.618;7.406;2023-05-20T02:48:30;101557.34;;;29.55;48.44
44992;BME280;56865;51.618;7.406;2023-05-20T02:51:00;101561.56;;;29.59;47.98
44992;BME280;56865;51.618;7.406;2023-05-20T02:53:32;101555.41;;;29.60;48.90
44992;BME280;56865;51.618;7.406;2023-05-20T02:56:02;101556.56;;;29.53;48.19
44992;BME280;56865;51.618;7.406;2023-05-20T02:58:34;101558.72;;;29.65;49.89
44992;BME280;56865;51.618;7.406;2023-05-20T03:01:04;101552.84;;;29.80;50.73
44992;BME280;56865;51.618;7.406;2023-05-20T03:03:34;101559.00;;;29.57;49.77
44992;BME280;56865;51.618;7.406;2023-05-20T03:06:04;101556.56;;;29.75;48.22
44992;BME280;56865;51.618;7.406;2023-05-20T03:08:37;101554.88;;;29.74;48.52
44992;BME280;56865;51.618;7.406;2023-05-20T03:11:08;101544.78;;;29.85;49.99
44992;BME280;56865;51.618;7.406;2023-05-20T03:13:38;101548.22;;;29.41;47.79
44992;BME280;56865;51.618;7.406;2023-05-20T03:16:08;101546.97;;;29.74;48.63
44992;BME280;56865;51.618;7.406;2023-05-20T03:18:38;101555.63;;;29.77;48.94
44992;BME280;56865;51.618;7.406;2023-05-20T03:21:09;101555.41;;;29.82;47.74
44992;BME280;56865;51.618;7.406;2023-05-20T03:23:41;101559.09;;;29.78;47.83
44992;BME280;56865;51.618;7.406;2023-05-20T03:26:12;101555.34;;;29.83;50.33
44992;BME280;56865;51.618;7.406;2023-05-20T03:28:42;101555.41;;;29.82;49.46
44992;BME280;56865;51.618;7.406;2023-05-20T03:31:12;101556.28;;;29.82;49.40
44992;BME280;56865;51.618;7.406;2023-05-20T03:33:43;101553.25;;;29.70;49.03
44992;BME280;56865;51.618;7.406;2023-05-20T03:36:13;101553.22;;;29.71;49.00
44992;BME280;56865;51.618;7.406;2023-05-20T03:38:46;101554.00;;;29.73;49.13
44992;BME280;56865;51.618;7.406;2023-05-20T03:41:16;101553.63;;;29.60;49.13
44992;BME280;56865;51.618;7.406;2023-05-20T03:43:46;101558.13;;;29.57;49.40
44992;BME280;56865;51.618;7.406;2023-05-20T03:46:15;101556.75;;;29.70;49.57
44992;BME280;56865;51.618;7.406;2023-05-20T03:48:45;101550.34;;;29.77;50.31
44992;BME280;56865;51.618;7.406;2023-05-20T03:51:15;101546.47;;;29.64;49.86
44992;BME280;56865;51.618;7.406;2023-05-20T03:53:48;101541.72;;;29.74;49.63
44992;BME280;56865;51.618;7.406;2023-05-20T03:56:18;101541.00;;;29.70;48.77
44992;BME280;56865;51.618;7.406;2023-05-20T03:58:48;101539.44;;;29.64;48.74
44992;BME280;56865;51.618;7.406;2023-05-20T04:01:18;101542.97;;;29.63;49.40
44992;BME280;56865;51.618;7.406;2023-05-20T04:03:51;101541.97;;;29.67;49.99
44992;BME280;56865;51.618;7.406;2023-05-20T04:06:21;101540.78;;;29.75;50.18
44992;BME280;56865;51.618;7.406;2023-05-20T04:08:55;101544.47;;;29.48;49.05
44992;BME280;56865;51.618;7.406;2023-05-20T04:11:25;101541.09;;;29.67;50.68
44992;BME280;56865;51.618;7.406;2023-05-20T04:13:54;101537.94;;;29.59;48.68
44992;BME280;56865;51.618;7.406;2023-05-20T04:16:26;101539.06;;;29.51;49.76
44992;BME280;56865;51.618;7.406;2023-05-20T04:18:56;101540.63;;;29.57;50.13
44992;BME280;56865;51.618;7.406;2023-05-20T04:21:28;101542.41;;;29.79;49.70
44992;BME280;56865;51.618;7.406;2023-05-20T04:24:01;101544.34;;;29.74;48.91
44992;BME280;56865;51.618;7.406;2023-05-20T04:26:31;101544.97;;;29.80;49.52
44992;BME280;56865;51.618;7.406;2023-05-20T04:29:01;101546.47;;;29.64;49.79
44992;BME280;56865;51.618;7.406;2023-05-20T04:31:31;101541.19;;;29.88;50.39
44992;BME280;56865;51.618;7.406;2023-05-20T04:34:01;101540.41;;;29.62;48.84
44992;BME280;56865;51.618;7.406;2023-05-20T04:36:31;101542.88;;;29.90;50.60
44992;BME280;56865;51.618;7.406;2023-05-20T04:39:06;101540.50;;;30.05;51.71
44992;BME280;56865;51.618;7.406;2023-05-20T04:41:36;101535.13;;;29.86;51.62
44992;BME280;56865;51.618;7.406;2023-05-20T04:44:06;101541.50;;;30.02;50.04
44992;BME280;56865;51.618;7.406;2023-05-20T04:46:36;101530.97;;;29.80;49.62
44992;BME280;56865;51.618;7.406;2023-05-20T04:49:07;101535.81;;;30.13;51.56
44992;BME280;56865;51.618;7.406;2023-05-20T04:51:37;101539.03;;;30.20;51.05
44992;BME280;56865;51.618;7.406;2023-05-20T04:54:10;101543.56;;;30.16;50.46
44992;BME280;56865;51.618;7.406;2023-05-20T04:56:40;101540.00;;;30.17;51.42
44992;BME280;56865;51.618;7.406;2023-05-20T04:59:10;101538.28;;;30.38;51.12
44992;BME280;56865;51.618;7.406;2023-05-20T05:01:40;101541.97;;;30.55;49.88
44992;BME280;56865;51.618;7.406;2023-05-20T05:04:10;101535.50;;;30.41;49.69
44992;BME280;56865;51.618;7.406;2023-05-20T05:06:40;101532.03;;;30.82;50.44
44992;BME280;56865;51.618;7.406;2023-05-20T05:09:12;101535.78;;;30.97;51.36
44992;BME280;56865;51.618;7.406;2023-05-20T05:11:42;101537.44;;;30.98;51.14
44992;BME280;56865;51.618;7.406;2023-05-20T05:14:12;101540.66;;;30.86;48.96
44992;BME280;56865;51.618;7.406;2023-05-20T05:16:42;101537.44;;;30.38;48.39
44992;BME280;56865;51.618;7.406;2023-05-20T05:19:12;101540.00;;;30.80;49.01
44992;BME280;56865;51.618;7.406;2023-05-20T05:21:42;101536.03;;;30.70;48.48
44992;BME280;56865;51.618;7.406;2023-05-20T05:24:15;101538.59;;;30.92;50.57
44992;BME280;56865;51.618;7.406;2023-05-20T05:26:45;101548.81;;;30.79;49.53
44992;BME280;56865;51.618;7.406;2023-05-20T05:29:15;101538.81;;;30.67;49.30
44992;BME280;56865;51.618;7.406;2023-05-20T05:31:45;101547.31;;;30.74;48.50
44992;BME280;56865;51.618;7.406;2023-05-20T05:34:15;101533.25;;;31.34;50.81
44992;BME280;56865;51.618;7.406;2023-05-20T05:36:45;101538.31;;;30.99;48.11
44992;BME280;56865;51.618;7.406;2023-05-20T05:39:18;101540.22;;;31.16;48.52
44992;BME280;56865;51.618;7.406;2023-05-20T05:41:49;101533.25;;;30.94;48.46
44992;BME280;56865;51.618;7.406;2023-05-20T05:44:19;101530.97;;;31.26;50.31
44992;BME280;56865;51.618;7.406;2023-05-20T05:46:49;101534.94;;;31.16;49.35
44992;BME280;56865;51.618;7.406;2023-05-20T05:49:20;101537.66;;;31.14;48.55
44992;BME280;56865;51.618;7.406;2023-05-20T05:51:50;101534.63;;;31.42;49.34
44992;BME280;56865;51.618;7.406;2023-05-20T05:54:23;101525.28;;;31.35;48.78
44992;BME280;56865;51.618;7.406;2023-05-20T05:56:53;101530.13;;;31.64;49.30
44992;BME280;56865;51.618;7.406;2023-05-20T05:59:24;101531.25;;;31.77;48.50
44992;BME280;56865;51.618;7.406;2023-05-20T06:01:54;101531.09;;;31.80;49.04
44992;BME280;56865;51.618;7.406;2023-05-20T06:04:24;101525.44;;;31.88;49.59
44992;BME280;56865;51.618;7.406;2023-05-20T06:06:54;101530.50;;;32.29;48.22
44992;BME280;56865;51.618;7.406;2023-05-20T06:09:27;101526.41;;;32.04;48.12
44992;BME280;56865;51.618;7.406;2023-05-20T06:11:57;101529.41;;;31.60;49.28
44992;BME280;56865;51.618;7.406;2023-05-20T06:14:28;101513.16;;;32.23;47.63
44992;BME280;56865;51.618;7.406;2023-05-20T06:16:58;101520.41;;;32.71;47.03
44992;BME280;56865;51.618;7.406;2023-05-20T06:19:28;101519.38;;;32.40;46.49
44992;BME280;56865;51.618;7.406;2023-05-20T06:21:59;101515.38;;;32.66;47.78
44992;BME280;56865;51.618;7.406;2023-05-20T06:24:32;101517.72;;;33.06;47.22
44992;BME280;56865;51.618;7.406;2023-05-20T06:27:03;101520.81;;;32.63;45.24
44992;BME280;56865;51.618;7.406;2023-05-20T06:29:33;101513.66;;;32.65;47.36
44992;BME280;56865;51.618;7.406;2023-05-20T06:32:04;101507.63;;;32.11;46.90
44992;BME280;56865;51.618;7.406;2023-05-20T06:34:34;101511.72;;;31.81;47.07
44992;BME280;56865;51.618;7.406;2023-05-20T06:37:04;101512.38;;;32.39;48.88
44992;BME280;56865;51.618;7.406;2023-05-20T06:39:37;101515.16;;;32.18;47.28
44992;BME280;56865;51.618;7.406;2023-05-20T06:42:07;101510.69;;;32.20;47.19
44992;BME280;56865;51.618;7.406;2023-05-20T06:44:38;101522.84;;;32.05;48.11
44992;BME280;56865;51.618;7.406;2023-05-20T06:47:08;101514.97;;;32.23;48.17
44992;BME280;56865;51.618;7.406;2023-05-20T06:49:38;101514.53;;;32.13;46.77
44992;BME280;56865;51.618;7.406;2023-05-20T06:52:11;101506.75;;;32.29;49.42
44992;BME280;56865;51.618;7.406;2023-05-20T06:54:44;101513.78;;;32.46;47.99
44992;BME280;56865;51.618;7.406;2023-05-20T06:57:14;101509.31;;;31.57;47.54
44992;BME280;56865;51.618;7.406;2023-05-20T06:59:45;101511.41;;;31.87;48.78
44992;BME280;56865;51.618;7.406;2023-05-20T07:02:15;101506.34;;;31.65;46.98
44992;BME280;56865;51.618;7.406;2023-05-20T07:04:45;101510.72;;;31.45;47.69
44992;BME280;56865;51.618;7.406;2023-05-20T07:07:15;101502.94;;;31.25;48.01
44992;BME280;56865;51.618;7.406;2023-05-20T07:09:48;101505.31;;;31.10;48.07
44992;BME280;56865;51.618;7.406;2023-05-20T07:12:18;101510.84;;;31.81;47.87
44992;BME280;56865;51.618;7.406;2023-05-20T07:14:48;101502.63;;;31.69;49.06
44992;BME280;56865;51.618;7.406;2023-05-20T07:17:18;101504.34;;;31.51;48.61
44992;BME280;56865;51.618;7.406;2023-05-20T07:19:48;101502.47;;;31.90;47.83
44992;BME280;56865;51.618;7.406;2023-05-20T07:22:18;101501.19;;;31.81;50.15
44992;BME280;56865;51.618;7.406;2023-05-20T07:24:50;101500.78;;;31.71;48.73
44992;BME280;56865;51.618;7.406;2023-05-20T07:27:20;101501.22;;;31.24;48.03
44992;BME280;56865;51.618;7.406;2023-05-20T07:29:51;101499.19;;;31.48;47.98
44992;BME280;56865;51.618;7.406;2023-05-20T07:32:21;101493.50;;;31.38;50.63
44992;BME280;56865;51.618;7.406;2023-05-20T07:34:51;101496.66;;;31.27;48.87
44992;BME280;56865;51.618;7.406;2023-05-20T07:37:21;101488.66;;;30.91;49.15
44992;BME280;56865;51.618;7.406;2023-05-20T07:39:53;101486.47;;;31.20;49.45
44992;BME280;56865;51.618;7.406;2023-05-20T07:42:23;101480.09;;;30.86;49.18
44992;BME280;56865;51.618;7.406;2023-05-20T07:44:53;101487.31;;;31.39;50.17
44992;BME280;56865;51.618;7.406;2023-05-20T07:47:23;101488.56;;;31.32;49.71
44992;BME280;56865;51.618;7.406;2023-05-20T07:49:53;101488.31;;;31.18;50.38
44992;BME280;56865;51.618;7.406;2023-05-20T07:52:23;101491.94;;;31.34;48.94
44992;BME280;56865;51.618;7.406;2023-05-20T07:54:56;101492.09;;;31.31;49.85
44992;BME280;56865;51.618;7.406;2023-05-20T07:57:26;101485.72;;;30.97;49.43
44992;BME280;56865;51.618;7.406;2023-05-20T07:59:56;101488.50;;;30.94;49.60
44992;BME280;56865;51.618;7.406;2023-05-20T08:02:26;101483.00;;;31.56;49.78
44992;BME280;56865;51.618;7.406;2023-05-20T08:04:56;101486.69;;;31.34;49.50
44992;BME280;56865;51.618;7.406;2023-05-20T08:07:26;101482.00;;;31.58;49.76
44992;BME280;56865;51.618;7.406;2023-05-20T08:09:59;101488.03;;;31.80;49.45
44992;BME280;56865;51.618;7.406;2023-05-20T08:12:29;101483.56;;;31.99;49.27
44992;BME280;56865;51.618;7.406;2023-05-20T08:14:59;101482.03;;;31.95;48.65
44992;BME280;56865;51.618;7.406;2023-05-20T08:17:31;101475.47;;;31.67;49.72
44992;BME280;56865;51.618;7.406;2023-05-20T08:20:01;101476.22;;;31.33;50.65
44992;BME280;56865;51.618;7.406;2023-05-20T08:22:31;101472.81;;;31.67;50.24
44992;BME280;56865;51.618;7.406;2023-05-20T08:25:07;101477.75;;;31.75;50.52
44992;BME280;56865;51.618;7.406;2023-05-20T08:27:38;101475.47;;;31.85;50.54
44992;BME280;56865;51.618;7.406;2023-05-20T08:30:09;101474.16;;;31.76;50.83
44992;BME280;56865;51.618;7.406;2023-05-20T08:32:40;101469.03;;;31.73;49.85
44992;BME280;56865;51.618;7.406;2023-05-20T08:35:10;101468.06;;;31.93;50.54
44992;BME280;56865;51.618;7.406;2023-05-20T08:37:40;101470.53;;;31.59;49.87
44992;BME280;56865;51.618;7.406;2023-05-20T08:40:13;101482.59;;;31.65;49.96
44992;BME280;56865;51.618;7.406;2023-05-20T08:42:43;101485.16;;;31.67;50.49
44992;BME280;56865;51.618;7.406;2023-05-20T08:45:16;101482.94;;;31.21;49.72
44992;BME280;56865;51.618;7.406;2023-05-20T08:47:47;101476.13;;;31.72;49.82
44992;BME280;56865;51.618;7.406;2023-05-20T08:50:18;101479.72;;;32.06;49.66
44992;BME280;56865;51.618;7.406;2023-05-20T08:52:48;101482.16;;;31.92;49.59
44992;BME280;56865;51.618;7.406;2023-05-20T08:55:28;101485.09;;;31.68;49.88
44992;BME280;56865;51.618;7.406;2023-05-20T08:58:01;101487.50;;;31.54;49.39
44992;BME280;56865;51.618;7.406;2023-05-20T09:00:31;101477.06;;;32.06;52.05
44992;BME280;56865;51.618;7.406;2023-05-20T09:03:01;101483.31;;;32.23;51.23
44992;BME280;56865;51.618;7.406;2023-05-20T09:05:31;101484.72;;;32.11;51.12
44992;BME280;56865;51.618;7.406;2023-05-20T09:08:05;101481.06;;;32.14;51.15
44992;BME280;56865;51.618;7.406;2023-05-20T09:10:39;101483.66;;;31.61;50.39
44992;BME280;56865;51.618;7.406;2023-05-20T09:13:10;101473.94;;;31.81;50.27
44992;BME280;56865;51.618;7.406;2023-05-20T09:15:40;101473.44;;;31.17;49.99
44992;BME280;56865;51.618;7.406;2023-05-20T09:18:10;101469.34;;;31.67;51.16
44992;BME280;56865;51.618;7.406;2023-05-20T09:20:40;101465.56;;;32.07;50.53
44992;BME280;56865;51.618;7.406;2023-05-20T09:23:10;101466.34;;;31.92;49.73
44992;BME280;56865;51.618;7.406;2023-05-20T09:25:42;101476.44;;;32.01;49.89
44992;BME280;56865;51.618;7.406;2023-05-20T09:28:12;101471.53;;;31.76;51.84
44992;BME280;56865;51.618;7.406;2023-05-20T09:30:43;101471.31;;;31.98;50.94
44992;BME280;56865;51.618;7.406;2023-05-20T09:33:14;101466.50;;;31.89;51.21
44992;BME280;56865;51.618;7.406;2023-05-20T09:35:44;101472.25;;;32.15;50.64
44992;BME280;56865;51.618;7.406;2023-05-20T09:38:14;101469.78;;;32.29;51.68
44992;BME280;56865;51.618;7.406;2023-05-20T09:40:47;101468.59;;;32.35;50.84
44992;BME280;56865;51.618;7.406;2023-05-20T09:43:17;101466.91;;;32.34;51.39
44992;BME280;56865;51.618;7.406;2023-05-20T09:45:47;101460.47;;;32.04;51.21
44992;BME280;56865;51.618;7.406;2023-05-20T09:48:21;101465.41;;;32.46;50.60
44992;BME280;56865;51.618;7.406;2023-05-20T09:50:51;101468.63;;;32.68;51.12
44992;BME280;56865;51.618;7.406;2023-05-20T09:53:22;101465.44;;;32.11;50.20
44992;BME280;56865;51.618;7.406;2023-05-20T09:55:57;101465.16;;;32.50;51.42
44992;BME280;56865;51.618;7.406;2023-05-20T09:58:27;101461.59;;;32.85;52.18
44992;BME280;56865;51.618;7.406;2023-05-20T10:00:57;101456.25;;;32.69;52.08
44992;BME280;56865;51.618;7.406;2023-05-20T10:03:27;101452.59;;;32.55;51.51
44992;BME280;56865;51.618;7.406;2023-05-20T10:06:01;101448.81;;;32.77;50.93
44992;BME280;56865;51.618;7.406;2023-05-20T10:08:49;101445.84;;;32.50;51.71
44992;BME280;56865;51.618;7.406;2023-05-20T10:11:27;101447.38;;;32.87;51.78
44992;BME280;56865;51.618;7.406;2023-05-20T10:14:17;101444.69;;;32.71;50.97
44992;BME280;56865;51.618;7.406;2023-05-20T10:16:52;101441.69;;;33.11;52.16
44992;BME280;56865;51.618;7.406;2023-05-20T10:19:26;101434.38;;;33.32;52.45
44992;BME280;56865;51.618;7.406;2023-05-20T10:21:57;101439.81;;;33.13;51.37
44992;BME280;56865;51.618;7.406;2023-05-20T10:24:30;101428.16;;;32.52;51.60
44992;BME280;56865;51.618;7.406;2023-05-20T10:27:04;101424.53;;;32.86;52.41
44992;BME280;56865;51.618;7.406;2023-05-20T10:29:43;101415.84;;;33.00;51.37
44992;BME280;56865;51.618;7.406;2023-05-20T10:32:22;101420.22;;;33.01;51.67
44992;BME280;56865;51.618;7.406;2023-05-20T10:34:57;101400.25;;;33.28;51.60
44992;BME280;56865;51.618;7.406;2023-05-20T10:37:28;101409.16;;;33.57;52.87
44992;BME280;56865;51.618;7.406;2023-05-20T10:40:05;101397.13;;;33.98;52.38
44992;BME280;56865;51.618;7.406;2023-05-20T10:42:39;101387.84;;;33.91;52.89
44992;BME280;56865;51.618;7.406;2023-05-20T10:45:09;101387.56;;;33.65;51.51
44992;BME280;56865;51.618;7.406;2023-05-20T10:47:41;101386.16;;;34.18;52.38
44992;BME280;56865;51.618;7.406;2023-05-20T10:50:13;101388.88;;;34.02;52.45
44992;BME280;56865;51.618;7.406;2023-05-20T10:53:00;101395.63;;;33.78;50.95
44992;BME280;56865;51.618;7.406;2023-05-20T10:55:35;101381.72;;;33.90;50.85
44992;BME280;56865;51.618;7.406;2023-05-20T10:58:08;101393.59;;;33.52;50.14
44992;BME280;56865;51.618;7.406;2023-05-20T11:00:41;101384.72;;;33.84;50.50
44992;BME280;56865;51.618;7.406;2023-05-20T11:03:11;101380.94;;;33.88;51.31
44992;BME280;56865;51.618;7.406;2023-05-20T11:05:42;101378.41;;;34.01;50.75
44992;BME280;56865;51.618;7.406;2023-05-20T11:08:13;101373.78;;;34.05;50.34
44992;BME280;56865;51.618;7.406;2023-05-20T11:10:54;101371.03;;;34.06;49.82
44992;BME280;56865;51.618;7.406;2023-05-20T11:13:27;101363.75;;;33.95;49.90
44992;BME280;56865;51.618;7.406;2023-05-20T11:15:57;101365.88;;;33.74;50.38
44992;BME280;56865;51.618;7.406;2023-05-20T11:18:27;101371.78;;;34.08;50.29
44992;BME280;56865;51.618;7.406;2023-05-20T11:20:58;101377.56;;;33.70;49.46
44992;BME280;56865;51.618;7.406;2023-05-20T11:23:28;101376.63;;;34.01;49.31
44992;BME280;56865;51.618;7.406;2023-05-20T11:25:59;101369.84;;;34.41;50.37
44992;BME280;56865;51.618;7.406;2023-05-20T11:28:32;101369.91;;;34.25;49.12
44992;BME280;56865;51.618;7.406;2023-05-20T11:31:03;101375.47;;;34.20;50.44
44992;BME280;56865;51.618;7.406;2023-05-20T11:33:33;101366.59;;;34.50;50.03
44992;BME280;56865;51.618;7.406;2023-05-20T11:36:03;101364.72;;;34.23;50.06
44992;BME280;56865;51.618;7.406;2023-05-20T11:38:41;101371.44;;;34.43;49.02
44992;BME280;56865;51.618;7.406;2023-05-20T11:41:14;101368.59;;;34.32;49.35
44992;BME280;56865;51.618;7.406;2023-05-20T11:43:47;101366.41;;;34.39;49.38
44992;BME280;56865;51.618;7.406;2023-05-20T11:46:23;101370.28;;;34.47;49.36
44992;BME280;56865;51.618;7.406;2023-05-20T11:48:53;101357.16;;;34.46;50.17
44992;BME280;56865;51.618;7.406;2023-05-20T11:51:23;101361.50;;;34.47;48.32
44992;BME280;56865;51.618;7.406;2023-05-20T11:53:57;101356.66;;;34.25;49.12
44992;BME280;56865;51.618;7.406;2023-05-20T11:56:27;101346.19;;;34.38;49.16
44992;BME280;56865;51.618;7.406;2023-05-20T11:59:00;101341.25;;;34.17;49.42
44992;BME280;56865;51.618;7.406;2023-05-20T12:01:31;101329.75;;;34.47;50.20
44992;BME280;56865;51.618;7.406;2023-05-20T12:04:06;101333.31;;;34.46;48.76
44992;BME280;56865;51.618;7.406;2023-05-20T12:06:36;101324.84;;;33.67;48.81
44992;BME280;56865;51.618;7.406;2023-05-20T12:09:06;101324.22;;;34.64;48.47
44992;BME280;56865;51.618;7.406;2023-05-20T12:11:36;101323.59;;;34.88;48.94
44992;BME280;56865;51.618;7.406;2023-05-20T12:14:10;101315.38;;;34.78;48.96
44992;BME280;56865;51.618;7.406;2023-05-20T12:16:39;101314.31;;;34.81;48.09
44992;BME280;56865;51.618;7.406;2023-05-20T12:19:09;101321.72;;;34.76;49.53
44992;BME280;56865;51.618;7.406;2023-05-20T12:21:39;101315.00;;;35.25;48.28
44992;BME280;56865;51.618;7.406;2023-05-20T12:24:09;101312.63;;;35.60;49.83
44992;BME280;56865;51.618;7.406;2023-05-20T12:26:39;101310.28;;;35.43;48.34
44992;BME280;56865;51.618;7.406;2023-05-20T12:29:11;101313.59;;;35.19;47.94
44992;BME280;56865;51.618;7.406;2023-05-20T12:31:41;101312.31;;;34.57;47.53
44992;BME280;56865;51.618;7.406;2023-05-20T12:34:11;101316.25;;;35.85;49.92
44992;BME280;56865;51.618;7.406;2023-05-20T12:36:41;101318.47;;;35.66;48.10
44992;BME280;56865;51.618;7.406;2023-05-20T12:39:11;101314.66;;;35.83;48.78
44992;BME280;56865;51.618;7.406;2023-05-20T12:41:43;101301.91;;;34.96;46.70
44992;BME280;56865;51.618;7.406;2023-05-20T12:44:15;101305.09;;;35.41;47.88
44992;BME280;56865;51.618;7.406;2023-05-20T12:46:46;101304.22;;;35.01;46.98
44992;BME280;56865;51.618;7.406;2023-05-20T12:49:16;101305.53;;;35.48;47.85
44992;BME280;56865;51.618;7.406;2023-05-20T12:51:45;101308.41;;;35.58;48.36
44992;BME280;56865;51.618;7.406;2023-05-20T12:54:16;101310.25;;;35.30;48.65
44992;BME280;56865;51.618;7.406;2023-05-20T12:56:46;101315.56;;;35.30;47.36
44992;BME280;56865;51.618;7.406;2023-05-20T12:59:18;101302.66;;;35.64;48.16
44992;BME280;56865;51.618;7.406;2023-05-20T13:01:48;101314.00;;;35.53;47.74
44992;BME280;56865;51.618;7.406;2023-05-20T13:04:18;101295.44;;;35.00;46.06
44992;BME280;56865;51.618;7.406;2023-05-20T13:06:48;101302.03;;;35.73;46.82
44992;BME280;56865;51.618;7.406;2023-05-20T13:09:18;101298.22;;;35.39;46.88
44992;BME280;56865;51.618;7.406;2023-05-20T13:11:48;101293.31;;;35.45;45.87
44992;BME280;56865;51.618;7.406;2023-05-20T13:14:21;101294.28;;;35.04;46.35
44992;BME280;56865;51.618;7.406;2023-05-20T13:16:51;101290.44;;;34.95;46.28
44992;BME280;56865;51.618;7.406;2023-05-20T13:19:21;101281.53;;;35.50;47.62
44992;BME280;56865;51.618;7.406;2023-05-20T13:21:51;101281.53;;;35.37;46.13